createdAt,value
2019-03-02T00:00:46.549Z,7.90
2019-03-02T00:01:48.784Z,9.70
2019-03-02T00:02:46.492Z,8.90
2019-03-02T00:03:46.482Z,9.50
2019-03-02T00:04:49.275Z,8.40
2019-03-02T00:05:46.420Z,8.30
2019-03-02T00:06:46.404Z,11.00
2019-03-02T00:07:47.685Z,10.50
2019-03-02T00:08:46.354Z,12.10
2019-03-02T00:09:46.337Z,11.80
2019-03-02T00:10:46.300Z,8.20
2019-03-02T00:11:46.283Z,9.90
2019-03-02T00:12:46.281Z,10.90
2019-03-02T00:13:46.245Z,12.70
2019-03-02T00:14:46.207Z,7.80
2019-03-02T00:15:46.182Z,11.00
2019-03-02T00:16:46.159Z,12.70
2019-03-02T00:17:46.133Z,14.40
2019-03-02T00:18:46.112Z,8.30
2019-03-02T00:19:46.090Z,8.10
2019-03-02T00:20:46.063Z,10.00
2019-03-02T00:21:46.039Z,10.70
2019-03-02T00:22:46.028Z,10.80
2019-03-02T00:23:45.991Z,10.50
2019-03-02T00:24:45.977Z,7.70
2019-03-02T00:25:45.944Z,9.50
2019-03-02T00:26:46.851Z,12.10
2019-03-02T00:27:45.895Z,9.70
2019-03-02T00:28:45.872Z,9.60
2019-03-02T00:29:46.794Z,8.90
2019-03-02T00:30:45.824Z,7.20
2019-03-02T00:31:45.799Z,10.10
2019-03-02T00:32:46.042Z,8.80
2019-03-02T00:33:45.750Z,8.90
2019-03-02T00:34:45.727Z,9.40
2019-03-02T00:35:45.702Z,7.20
2019-03-02T00:36:45.677Z,8.30
2019-03-02T00:37:45.669Z,9.10
2019-03-02T00:38:45.629Z,9.30
2019-03-02T00:39:45.610Z,6.60
2019-03-02T00:40:45.583Z,7.90
2019-03-02T00:41:45.560Z,7.50
2019-03-02T00:42:48.746Z,7.10
2019-03-02T00:43:45.522Z,9.30
2019-03-02T00:44:45.498Z,4.70
2019-03-02T00:45:45.995Z,8.60
2019-03-02T00:46:45.444Z,7.10
2019-03-02T00:47:45.415Z,8.20
2019-03-02T00:48:46.968Z,8.80
2019-03-02T00:49:45.366Z,7.90
2019-03-02T00:50:45.346Z,9.50
2019-03-02T00:51:46.245Z,10.10
2019-03-02T00:52:45.296Z,6.50
2019-03-02T00:53:45.270Z,5.90
2019-03-02T00:54:47.376Z,7.50
2019-03-02T00:55:45.232Z,7.30
2019-03-02T00:56:45.208Z,8.00
2019-03-02T00:57:45.175Z,6.00
2019-03-02T00:58:45.159Z,5.40
2019-03-02T00:59:45.128Z,6.50
2019-03-02T01:00:45.111Z,5.00
2019-03-02T01:01:45.088Z,7.00
2019-03-02T01:02:45.055Z,6.60
2019-03-02T01:03:47.723Z,6.30
2019-03-02T01:04:45.006Z,6.70
2019-03-02T01:05:44.986Z,6.80
2019-03-02T01:06:48.638Z,6.90
2019-03-02T01:07:44.950Z,5.40
2019-03-02T01:08:44.910Z,6.20
2019-03-02T01:09:46.488Z,6.70
2019-03-02T01:10:44.862Z,7.20
2019-03-02T01:11:44.841Z,5.70
2019-03-02T01:12:45.284Z,8.10
2019-03-02T01:13:44.801Z,8.70
2019-03-02T01:14:44.768Z,5.90
2019-03-02T01:15:44.895Z,7.40
2019-03-02T01:16:44.727Z,5.90
2019-03-02T01:17:44.696Z,6.90
2019-03-02T01:18:44.670Z,5.30
2019-03-02T01:19:44.660Z,7.50
2019-03-02T01:20:44.630Z,7.20
2019-03-02T01:21:44.601Z,4.20
2019-03-02T01:22:44.581Z,7.80
2019-03-02T01:23:44.549Z,9.50
2019-03-02T01:24:44.536Z,5.60
2019-03-02T01:25:45.470Z,4.90
2019-03-02T01:26:44.483Z,9.00
2019-03-02T01:27:44.455Z,6.10
2019-03-02T01:28:45.338Z,4.60
2019-03-02T01:29:44.416Z,4.30
2019-03-02T01:30:44.382Z,5.60
2019-03-02T01:31:44.359Z,6.70
2019-03-02T01:32:44.338Z,6.70
2019-03-02T01:33:44.317Z,8.00
2019-03-02T01:34:44.288Z,5.30
2019-03-02T01:35:44.272Z,5.80
2019-03-02T01:36:44.867Z,6.10
2019-03-02T01:37:45.347Z,6.40
2019-03-02T01:38:44.194Z,7.10
2019-03-02T01:39:44.176Z,7.00
2019-03-02T01:40:44.142Z,4.80
2019-03-02T01:41:44.120Z,6.00
2019-03-02T01:42:44.103Z,9.20
2019-03-02T01:43:44.073Z,6.80
2019-03-02T01:44:44.046Z,6.60
2019-03-02T01:45:44.023Z,5.10
2019-03-02T01:46:44.001Z,5.60
2019-03-02T01:47:43.978Z,7.40
2019-03-02T01:48:43.971Z,10.00
2019-03-02T01:49:43.929Z,12.10
2019-03-02T01:50:47.646Z,7.60
2019-03-02T01:51:43.897Z,9.80
2019-03-02T01:52:43.863Z,7.90
2019-03-02T01:53:45.690Z,10.60
2019-03-02T01:54:43.807Z,10.20
2019-03-02T01:55:43.790Z,10.90
2019-03-02T01:56:43.757Z,10.60
2019-03-02T01:57:43.742Z,10.70
2019-03-02T01:58:43.727Z,15.60
2019-03-02T01:59:43.696Z,8.20
2019-03-02T02:00:45.727Z,10.20
2019-03-02T02:01:43.639Z,11.30
2019-03-02T02:02:43.615Z,9.00
2019-03-02T02:03:46.949Z,10.40
2019-03-02T02:04:43.574Z,10.00
2019-03-02T02:05:43.543Z,11.20
2019-03-02T02:06:43.690Z,10.40
2019-03-02T02:07:43.496Z,11.70
2019-03-02T02:08:43.474Z,10.70
2019-03-02T02:09:43.446Z,12.30
2019-03-02T02:10:44.306Z,9.40
2019-03-02T02:11:43.398Z,9.50
2019-03-02T02:12:43.373Z,10.60
2019-03-02T02:13:43.984Z,11.40
2019-03-02T02:14:43.324Z,11.60
2019-03-02T02:15:43.305Z,11.70
2019-03-02T02:16:43.278Z,11.40
2019-03-02T02:17:43.252Z,12.10
2019-03-02T02:18:43.238Z,13.70
2019-03-02T02:19:43.206Z,12.90
2019-03-02T02:20:43.180Z,10.90
2019-03-02T02:21:43.156Z,15.20
2019-03-02T02:22:43.132Z,13.20
2019-03-02T02:23:45.736Z,13.70
2019-03-02T02:24:43.084Z,12.60
2019-03-02T02:25:43.060Z,14.00
2019-03-02T02:26:43.961Z,11.10
2019-03-02T02:27:43.013Z,15.80
2019-03-02T02:28:42.995Z,15.00
2019-03-02T02:29:43.511Z,15.00
2019-03-02T02:30:42.954Z,14.70
2019-03-02T02:31:44.989Z,12.80
2019-03-02T02:32:42.905Z,14.60
2019-03-02T02:33:44.497Z,14.20
2019-03-02T02:34:42.844Z,15.50
2019-03-02T02:35:42.823Z,15.40
2019-03-02T02:36:42.799Z,14.80
2019-03-02T02:37:42.780Z,13.40
2019-03-02T02:38:42.757Z,14.60
2019-03-02T02:39:42.730Z,14.80
2019-03-02T02:40:42.698Z,16.40
2019-03-02T02:41:42.678Z,16.30
2019-03-02T02:42:43.354Z,16.30
2019-03-02T02:43:42.635Z,15.50
2019-03-02T02:44:42.603Z,13.90
2019-03-02T02:45:42.579Z,15.90
2019-03-02T02:46:42.554Z,16.30
2019-03-02T02:47:50.337Z,16.50
2019-03-02T02:48:42.507Z,18.00
2019-03-02T02:49:44.315Z,17.60
2019-03-02T02:50:43.126Z,16.70
2019-03-02T02:51:44.524Z,19.20
2019-03-02T02:52:42.418Z,19.90
2019-03-02T02:53:45.319Z,18.90
2019-03-02T02:54:42.363Z,16.30
2019-03-02T02:55:42.349Z,17.40
2019-03-02T02:56:42.313Z,17.60
2019-03-02T02:57:42.288Z,19.30
2019-03-02T02:58:42.264Z,19.00
2019-03-02T02:59:42.244Z,18.30
2019-03-02T03:00:42.216Z,19.20
2019-03-02T03:01:42.192Z,19.10
2019-03-02T03:02:42.182Z,19.60
2019-03-02T03:03:42.145Z,20.90
2019-03-02T03:04:42.122Z,20.50
2019-03-02T03:05:42.104Z,19.20
2019-03-02T03:06:42.075Z,20.40
2019-03-02T03:07:42.056Z,19.80
2019-03-02T03:08:42.022Z,21.30
2019-03-02T03:09:45.268Z,21.80
2019-03-02T03:10:41.974Z,22.50
2019-03-02T03:11:44.378Z,20.20
2019-03-02T03:12:41.927Z,25.10
2019-03-02T03:13:42.194Z,27.10
2019-03-02T03:14:41.884Z,22.80
2019-03-02T03:15:41.859Z,21.10
2019-03-02T03:16:41.837Z,22.70
2019-03-02T03:17:41.815Z,24.30
2019-03-02T03:18:41.781Z,24.30
2019-03-02T03:19:41.765Z,27.40
2019-03-02T03:20:47.881Z,23.00
2019-03-02T03:21:41.714Z,24.80
2019-03-02T03:22:45.978Z,22.60
2019-03-02T03:23:41.663Z,24.60
2019-03-02T03:24:41.986Z,22.30
2019-03-02T03:25:41.619Z,24.80
2019-03-02T03:26:41.598Z,22.00
2019-03-02T03:27:41.571Z,24.90
2019-03-02T03:28:41.545Z,24.00
2019-03-02T03:29:44.627Z,26.70
2019-03-02T03:30:41.499Z,26.10
2019-03-02T03:31:41.469Z,24.70
2019-03-02T03:32:54.755Z,24.50
2019-03-02T03:33:43.422Z,23.20
2019-03-02T03:34:41.398Z,26.60
2019-03-02T03:35:41.392Z,24.00
2019-03-02T03:36:41.361Z,24.80
2019-03-02T03:37:41.324Z,31.20
2019-03-02T03:38:41.301Z,27.50
2019-03-02T03:39:41.945Z,25.10
2019-03-02T03:40:41.264Z,24.30
2019-03-02T03:41:43.406Z,26.80
2019-03-02T03:42:41.204Z,29.20
2019-03-02T03:43:42.645Z,26.10
2019-03-02T03:44:41.154Z,25.90
2019-03-02T03:45:43.328Z,27.70
2019-03-02T03:46:41.105Z,25.40
2019-03-02T03:47:41.084Z,27.40
2019-03-02T03:48:41.056Z,26.30
2019-03-02T03:49:41.033Z,26.10
2019-03-02T03:50:41.008Z,29.70
2019-03-02T03:51:40.985Z,26.20
2019-03-02T03:52:43.986Z,28.70
2019-03-02T03:53:40.937Z,27.70
2019-03-02T03:54:45.282Z,26.20
2019-03-02T03:55:40.888Z,26.60
2019-03-02T03:56:42.699Z,29.10
2019-03-02T03:57:40.841Z,27.70
2019-03-02T03:58:41.534Z,27.00
2019-03-02T03:59:40.791Z,25.20
2019-03-02T04:00:40.793Z,25.30
2019-03-02T04:01:40.744Z,28.70
2019-03-02T04:02:40.729Z,26.00
2019-03-02T04:03:40.713Z,28.20
2019-03-02T04:04:40.671Z,28.00
2019-03-02T04:05:42.151Z,27.80
2019-03-02T04:06:40.620Z,26.50
2019-03-02T04:07:48.701Z,25.00
2019-03-02T04:08:40.579Z,24.50
2019-03-02T04:09:42.849Z,29.60
2019-03-02T04:10:40.522Z,26.40
2019-03-02T04:11:42.052Z,25.10
2019-03-02T04:12:40.475Z,27.50
2019-03-02T04:13:44.890Z,30.30
2019-03-02T04:14:40.450Z,25.00
2019-03-02T04:15:41.864Z,24.20
2019-03-02T04:16:40.377Z,27.20
2019-03-02T04:17:40.802Z,24.00
2019-03-02T04:18:40.478Z,25.10
2019-03-02T04:19:40.315Z,24.80
2019-03-02T04:20:40.279Z,24.70
2019-03-02T04:21:40.259Z,24.70
2019-03-02T04:22:44.568Z,22.70
2019-03-02T04:23:40.210Z,22.90
2019-03-02T04:24:41.066Z,27.30
2019-03-02T04:25:40.159Z,27.40
2019-03-02T04:26:40.143Z,22.90
2019-03-02T04:27:40.121Z,25.30
2019-03-02T04:28:40.086Z,27.70
2019-03-02T04:29:49.029Z,26.90
2019-03-02T04:30:40.036Z,26.80
2019-03-02T04:31:44.023Z,23.00
2019-03-02T04:32:39.989Z,27.00
2019-03-02T04:33:43.296Z,26.40
2019-03-02T04:34:39.941Z,23.40
2019-03-02T04:35:39.919Z,24.10
2019-03-02T04:36:43.070Z,25.30
2019-03-02T04:37:39.870Z,23.90
2019-03-02T04:38:39.870Z,24.60
2019-03-02T04:39:39.822Z,22.50
2019-03-02T04:40:39.797Z,24.60
2019-03-02T04:41:40.750Z,21.70
2019-03-02T04:42:39.745Z,20.40
2019-03-02T04:43:39.722Z,23.40
2019-03-02T04:44:39.696Z,25.30
2019-03-02T04:45:40.522Z,22.20
2019-03-02T04:46:39.649Z,20.60
2019-03-02T04:47:39.629Z,21.00
2019-03-02T04:48:40.072Z,19.70
2019-03-02T04:49:39.576Z,23.30
2019-03-02T04:50:39.552Z,21.60
2019-03-02T04:51:40.144Z,20.30
2019-03-02T04:52:39.503Z,19.30
2019-03-02T04:53:39.479Z,24.10
2019-03-02T04:54:39.454Z,22.40
2019-03-02T04:55:39.430Z,21.80
2019-03-02T04:56:39.407Z,22.20
2019-03-02T04:57:39.382Z,21.60
2019-03-02T04:58:39.357Z,20.30
2019-03-02T04:59:39.334Z,22.50
2019-03-02T05:00:39.309Z,19.90
2019-03-02T05:01:43.736Z,20.10
2019-03-02T05:02:39.270Z,23.50
2019-03-02T05:03:39.287Z,23.00
2019-03-02T05:04:39.220Z,22.00
2019-03-02T05:05:40.593Z,22.10
2019-03-02T05:06:39.163Z,19.70
2019-03-02T05:07:39.144Z,21.90
2019-03-02T05:08:41.191Z,21.20
2019-03-02T05:09:39.091Z,23.50
2019-03-02T05:10:39.076Z,22.10
2019-03-02T05:11:40.642Z,20.40
2019-03-02T05:12:39.025Z,20.40
2019-03-02T05:13:38.993Z,21.40
2019-03-02T05:14:40.215Z,23.20
2019-03-02T05:15:38.943Z,21.40
2019-03-02T05:16:38.929Z,22.00
2019-03-02T05:17:39.716Z,20.10
2019-03-02T05:18:38.878Z,21.40
2019-03-02T05:19:38.850Z,22.20
2019-03-02T05:20:41.110Z,20.00
2019-03-02T05:21:39.787Z,21.90
2019-03-02T05:22:38.774Z,19.30
2019-03-02T05:23:38.750Z,24.70
2019-03-02T05:24:40.484Z,21.40
2019-03-02T05:25:38.701Z,23.40
2019-03-02T05:26:38.684Z,21.40
2019-03-02T05:27:38.661Z,22.20
2019-03-02T05:28:39.675Z,22.20
2019-03-02T05:29:38.604Z,25.10
2019-03-02T05:30:38.587Z,22.30
2019-03-02T05:31:40.901Z,23.00
2019-03-02T05:32:38.539Z,21.00
2019-03-02T05:33:38.508Z,24.40
2019-03-02T05:34:39.779Z,21.30
2019-03-02T05:35:38.468Z,22.80
2019-03-02T05:36:38.436Z,21.40
2019-03-02T05:37:39.243Z,23.20
2019-03-02T05:38:38.384Z,26.20
2019-03-02T05:39:38.363Z,23.50
2019-03-02T05:40:38.337Z,23.30
2019-03-02T05:41:39.183Z,23.20
2019-03-02T05:42:38.292Z,20.20
2019-03-02T05:43:38.267Z,23.40
2019-03-02T05:44:39.232Z,27.70
2019-03-02T05:45:38.214Z,25.30
2019-03-02T05:46:38.191Z,26.80
2019-03-02T05:47:38.176Z,24.60
2019-03-02T05:48:39.036Z,24.80
2019-03-02T05:49:38.119Z,23.00
2019-03-02T05:50:38.102Z,25.40
2019-03-02T05:51:38.892Z,24.10
2019-03-02T05:52:38.045Z,27.00
2019-03-02T05:53:38.021Z,25.70
2019-03-02T05:54:38.623Z,23.90
2019-03-02T05:55:37.979Z,23.00
2019-03-02T05:56:37.948Z,24.40
2019-03-02T05:57:40.476Z,23.60
2019-03-02T05:58:37.900Z,24.40
2019-03-02T05:59:37.881Z,28.30
2019-03-02T06:00:38.949Z,25.60
2019-03-02T06:01:40.431Z,25.50
2019-03-02T06:02:37.801Z,23.00
2019-03-02T06:03:37.788Z,23.70
2019-03-02T06:04:37.752Z,23.70
2019-03-02T06:05:37.729Z,24.20
2019-03-02T06:06:37.704Z,23.30
2019-03-02T06:07:37.683Z,24.00
2019-03-02T06:08:37.666Z,26.30
2019-03-02T06:09:37.632Z,24.10
2019-03-02T06:10:37.624Z,25.10
2019-03-02T06:11:39.371Z,24.70
2019-03-02T06:12:37.557Z,24.10
2019-03-02T06:13:37.537Z,23.30
2019-03-02T06:14:37.509Z,24.50
2019-03-02T06:15:39.698Z,23.40
2019-03-02T06:16:37.463Z,26.80
2019-03-02T06:17:37.450Z,26.40
2019-03-02T06:18:37.419Z,24.70
2019-03-02T06:19:37.388Z,25.20
2019-03-02T06:20:37.362Z,25.40
2019-03-02T06:21:37.339Z,25.40
2019-03-02T06:22:37.316Z,25.70
2019-03-02T06:23:37.296Z,29.20
2019-03-02T06:24:37.747Z,26.20
2019-03-02T06:25:37.250Z,29.60
2019-03-02T06:26:37.220Z,25.30
2019-03-02T06:27:37.202Z,24.10
2019-03-02T06:28:37.172Z,23.20
2019-03-02T06:29:37.144Z,25.20
2019-03-02T06:30:37.149Z,26.70
2019-03-02T06:31:37.199Z,28.80
2019-03-02T06:32:37.079Z,26.70
2019-03-02T06:33:37.065Z,25.80
2019-03-02T06:34:37.024Z,26.40
2019-03-02T06:35:37.016Z,25.30
2019-03-02T06:36:36.982Z,29.80
2019-03-02T06:37:36.951Z,27.10
2019-03-02T06:38:36.947Z,26.00
2019-03-02T06:39:36.911Z,25.10
2019-03-02T06:40:36.876Z,25.60
2019-03-02T06:41:36.854Z,27.40
2019-03-02T06:42:36.833Z,28.10
2019-03-02T06:43:36.806Z,29.00
2019-03-02T06:44:36.787Z,26.10
2019-03-02T06:45:36.760Z,27.70
2019-03-02T06:46:36.730Z,28.60
2019-03-02T06:47:36.707Z,25.70
2019-03-02T06:48:36.693Z,28.90
2019-03-02T06:49:36.658Z,28.20
2019-03-02T06:50:36.798Z,26.20
2019-03-02T06:51:36.608Z,29.70
2019-03-02T06:52:36.584Z,28.70
2019-03-02T06:53:37.184Z,27.30
2019-03-02T06:54:36.534Z,28.10
2019-03-02T06:55:36.520Z,29.50
2019-03-02T06:56:39.434Z,28.80
2019-03-02T06:57:36.460Z,28.80
2019-03-02T06:58:36.445Z,29.60
2019-03-02T06:59:39.323Z,28.90
2019-03-02T07:00:36.388Z,28.80
2019-03-02T07:01:36.364Z,28.90
2019-03-02T07:02:36.342Z,29.70
2019-03-02T07:03:36.317Z,29.10
2019-03-02T07:04:36.290Z,28.80
2019-03-02T07:05:37.311Z,27.90
2019-03-02T07:06:36.249Z,34.00
2019-03-02T07:07:36.217Z,29.10
2019-03-02T07:08:36.414Z,29.50
2019-03-02T07:09:36.179Z,33.20
2019-03-02T07:10:36.159Z,28.50
2019-03-02T07:11:36.121Z,31.20
2019-03-02T07:12:36.096Z,29.90
2019-03-02T07:13:36.070Z,31.60
2019-03-02T07:14:36.048Z,30.80
2019-03-02T07:15:36.022Z,29.20
2019-03-02T07:16:35.996Z,30.20
2019-03-02T07:17:35.973Z,30.70
2019-03-02T07:18:38.854Z,29.90
2019-03-02T07:19:35.929Z,32.50
2019-03-02T07:20:35.910Z,29.50
2019-03-02T07:21:37.648Z,29.10
2019-03-02T07:22:35.853Z,30.30
2019-03-02T07:23:35.843Z,31.30
2019-03-02T07:24:35.803Z,31.80
2019-03-02T07:25:37.037Z,33.40
2019-03-02T07:26:35.757Z,30.50
2019-03-02T07:27:35.732Z,32.20
2019-03-02T07:28:38.727Z,30.40
2019-03-02T07:29:35.688Z,29.60
2019-03-02T07:30:35.659Z,33.10
2019-03-02T07:31:35.634Z,31.30
2019-03-02T07:32:35.611Z,32.20
2019-03-02T07:33:35.585Z,35.30
2019-03-02T07:34:35.563Z,31.80
2019-03-02T07:35:35.539Z,29.80
2019-03-02T07:36:35.516Z,33.20
2019-03-02T07:37:35.489Z,31.50
2019-03-02T07:38:35.467Z,29.90
2019-03-02T07:39:36.503Z,29.90
2019-03-02T07:40:35.418Z,30.80
2019-03-02T07:41:35.395Z,35.00
2019-03-02T07:42:35.380Z,29.60
2019-03-02T07:43:35.347Z,31.80
2019-03-02T07:44:35.343Z,30.10
2019-03-02T07:45:36.687Z,31.90
2019-03-02T07:46:35.284Z,36.10
2019-03-02T07:47:35.259Z,28.30
2019-03-02T07:48:36.793Z,28.90
2019-03-02T07:49:35.205Z,32.40
2019-03-02T07:50:35.181Z,30.00
2019-03-02T07:51:37.908Z,32.10
2019-03-02T07:52:35.137Z,32.70
2019-03-02T07:53:35.118Z,31.50
2019-03-02T07:54:35.085Z,29.70
2019-03-02T07:55:35.061Z,33.70
2019-03-02T07:56:35.053Z,32.50
2019-03-02T07:57:35.014Z,33.80
2019-03-02T07:58:34.997Z,31.10
2019-03-02T07:59:34.969Z,30.40
2019-03-02T08:00:37.888Z,32.70
2019-03-02T08:01:34.927Z,31.30
2019-03-02T08:02:34.895Z,33.00
2019-03-02T08:03:34.873Z,35.00
2019-03-02T08:04:38.166Z,34.00
2019-03-02T08:05:34.827Z,32.40
2019-03-02T08:06:34.803Z,31.90
2019-03-02T08:07:38.060Z,32.10
2019-03-02T08:08:34.766Z,34.10
2019-03-02T08:09:34.733Z,33.40
2019-03-02T08:10:38.302Z,35.00
2019-03-02T08:11:34.687Z,36.50
2019-03-02T08:12:34.663Z,32.60
2019-03-02T08:13:36.470Z,34.10
2019-03-02T08:14:34.618Z,34.10
2019-03-02T08:15:34.608Z,36.40
2019-03-02T08:16:37.682Z,35.70
2019-03-02T08:17:34.561Z,36.40
2019-03-02T08:18:34.524Z,36.60
2019-03-02T08:19:34.520Z,35.00
2019-03-02T08:20:34.478Z,38.20
2019-03-02T08:21:35.881Z,39.10
2019-03-02T08:22:34.458Z,39.90
2019-03-02T08:23:34.419Z,37.90
2019-03-02T08:24:34.395Z,40.00
2019-03-02T08:25:34.363Z,42.00
2019-03-02T08:26:34.348Z,41.70
2019-03-02T08:27:34.627Z,41.00
2019-03-02T08:28:34.302Z,38.60
2019-03-02T08:29:34.276Z,40.80
2019-03-02T08:30:34.361Z,39.00
2019-03-02T08:31:34.237Z,42.40
2019-03-02T08:32:34.212Z,43.70
2019-03-02T08:33:34.461Z,41.00
2019-03-02T08:34:34.174Z,44.30
2019-03-02T08:35:34.145Z,45.10
2019-03-02T08:36:34.413Z,48.20
2019-03-02T08:37:34.095Z,44.50
2019-03-02T08:38:35.588Z,45.50
2019-03-02T08:39:34.047Z,49.30
2019-03-02T08:40:34.029Z,47.10
2019-03-02T08:41:36.670Z,50.10
2019-03-02T08:42:33.978Z,45.30
2019-03-02T08:43:33.954Z,46.80
2019-03-02T08:44:35.027Z,48.70
2019-03-02T08:45:33.907Z,48.90
2019-03-02T08:46:33.885Z,48.40
2019-03-02T08:47:33.862Z,46.50
2019-03-02T08:48:33.856Z,46.20
2019-03-02T08:49:33.822Z,48.80
2019-03-02T08:50:33.822Z,48.10
2019-03-02T08:51:33.786Z,48.10
2019-03-02T08:52:33.749Z,49.50
2019-03-02T08:53:33.728Z,47.70
2019-03-02T08:54:33.711Z,47.60
2019-03-02T08:55:34.995Z,47.80
2019-03-02T08:56:33.657Z,44.80
2019-03-02T08:57:33.646Z,47.30
2019-03-02T08:58:33.619Z,49.90
2019-03-02T08:59:34.752Z,47.20
2019-03-02T09:00:33.575Z,49.10
2019-03-02T09:01:33.573Z,53.40
2019-03-02T09:02:33.527Z,48.80
2019-03-02T09:03:33.780Z,48.60
2019-03-02T09:04:33.478Z,46.10
2019-03-02T09:05:45.130Z,48.20
2019-03-02T09:06:34.692Z,50.70
2019-03-02T09:07:35.547Z,47.70
2019-03-02T09:08:33.392Z,46.60
2019-03-02T09:09:33.365Z,46.40
2019-03-02T09:10:33.348Z,48.70
2019-03-02T09:11:33.324Z,46.70
2019-03-02T09:12:33.301Z,49.40
2019-03-02T09:13:34.694Z,48.00
2019-03-02T09:14:33.248Z,49.80
2019-03-02T09:15:33.225Z,47.90
2019-03-02T09:16:33.205Z,50.10
2019-03-02T09:17:33.183Z,48.90
2019-03-02T09:18:44.405Z,51.00
2019-03-02T09:19:33.133Z,50.70
2019-03-02T09:20:35.781Z,48.70
2019-03-02T09:21:33.101Z,53.30
2019-03-02T09:22:33.066Z,48.90
2019-03-02T09:23:36.210Z,50.90
2019-03-02T09:24:34.708Z,54.70
2019-03-02T09:25:35.071Z,51.30
2019-03-02T09:26:32.986Z,48.90
2019-03-02T09:27:32.951Z,56.40
2019-03-02T09:28:32.976Z,49.80
2019-03-02T09:29:32.911Z,54.20
2019-03-02T09:30:32.882Z,51.50
2019-03-02T09:31:35.088Z,49.40
2019-03-02T09:32:32.838Z,49.90
2019-03-02T09:33:32.817Z,48.30
2019-03-02T09:34:32.804Z,51.60
2019-03-02T09:35:32.776Z,55.30
2019-03-02T09:36:32.845Z,51.60
2019-03-02T09:37:32.728Z,58.00
2019-03-02T09:38:32.710Z,53.00
2019-03-02T09:39:37.344Z,51.80
2019-03-02T09:40:32.665Z,53.50
2019-03-02T09:41:32.645Z,51.40
2019-03-02T09:42:37.902Z,54.40
2019-03-02T09:43:32.590Z,55.50
2019-03-02T09:44:32.846Z,54.20
2019-03-02T09:45:32.542Z,57.60
2019-03-02T09:46:32.520Z,54.90
2019-03-02T09:47:32.506Z,52.80
2019-03-02T09:48:32.488Z,51.90
2019-03-02T09:49:33.918Z,51.80
2019-03-02T09:50:32.439Z,60.00
2019-03-02T09:51:32.416Z,58.90
2019-03-02T09:52:32.383Z,53.40
2019-03-02T09:53:32.374Z,55.40
2019-03-02T09:54:33.932Z,51.50
2019-03-02T09:55:32.318Z,59.20
2019-03-02T09:56:32.293Z,56.30
2019-03-02T09:57:32.289Z,58.60
2019-03-02T09:58:32.250Z,56.40
2019-03-02T09:59:32.227Z,61.10
2019-03-02T10:00:32.207Z,52.00
2019-03-02T10:01:32.183Z,57.10
2019-03-02T10:02:32.166Z,58.20
2019-03-02T10:03:32.145Z,59.70
2019-03-02T10:04:32.127Z,56.90
2019-03-02T10:05:32.110Z,60.20
2019-03-02T10:06:32.067Z,62.40
2019-03-02T10:07:34.563Z,61.60
2019-03-02T10:08:32.025Z,62.10
2019-03-02T10:09:32.003Z,71.20
2019-03-02T10:10:33.333Z,67.10
2019-03-02T10:11:31.955Z,69.10
2019-03-02T10:12:31.932Z,64.10
2019-03-02T10:13:31.910Z,68.60
2019-03-02T10:14:31.890Z,65.30
2019-03-02T10:15:31.867Z,76.60
2019-03-02T10:16:31.849Z,71.80
2019-03-02T10:17:34.898Z,73.80
2019-03-02T10:18:31.804Z,69.40
2019-03-02T10:19:31.778Z,68.80
2019-03-02T10:20:31.905Z,68.10
2019-03-02T10:21:31.730Z,70.30
2019-03-02T10:22:31.708Z,67.70
2019-03-02T10:23:31.697Z,66.00
2019-03-02T10:24:31.668Z,67.40
2019-03-02T10:25:32.801Z,70.30
2019-03-02T10:26:31.617Z,71.60
2019-03-02T10:27:31.595Z,68.50
2019-03-02T10:28:34.021Z,66.00
2019-03-02T10:29:32.408Z,64.40
2019-03-02T10:30:31.534Z,68.40
2019-03-02T10:31:31.511Z,69.10
2019-03-02T10:32:31.482Z,70.30
2019-03-02T10:33:32.225Z,69.80
2019-03-02T10:34:31.438Z,71.80
2019-03-02T10:35:31.415Z,66.20
2019-03-02T10:36:32.446Z,71.00
2019-03-02T10:37:31.387Z,68.20
2019-03-02T10:38:31.447Z,72.90
2019-03-02T10:39:32.774Z,70.40
2019-03-02T10:40:31.322Z,76.00
2019-03-02T10:41:31.289Z,75.30
2019-03-02T10:42:31.943Z,75.10
2019-03-02T10:43:31.238Z,69.70
2019-03-02T10:44:31.214Z,78.20
2019-03-02T10:45:31.192Z,73.50
2019-03-02T10:46:31.170Z,74.40
2019-03-02T10:47:31.148Z,77.50
2019-03-02T10:48:31.125Z,71.80
2019-03-02T10:49:31.103Z,70.30
2019-03-02T10:50:31.082Z,69.80
2019-03-02T10:51:34.023Z,72.10
2019-03-02T10:52:31.038Z,72.60
2019-03-02T10:53:31.014Z,76.50
2019-03-02T10:54:31.603Z,76.70
2019-03-02T10:55:30.970Z,72.70
2019-03-02T10:56:31.007Z,73.70
2019-03-02T10:57:30.928Z,71.00
2019-03-02T10:58:30.907Z,75.20
2019-03-02T10:59:30.881Z,79.20
2019-03-02T11:00:31.378Z,73.40
2019-03-02T11:01:30.852Z,67.70
2019-03-02T11:02:30.820Z,70.50
2019-03-02T11:03:31.694Z,69.40
2019-03-02T11:04:30.777Z,70.80
2019-03-02T11:05:30.751Z,66.60
2019-03-02T11:06:33.073Z,76.70
2019-03-02T11:07:30.704Z,75.10
2019-03-02T11:08:30.686Z,76.60
2019-03-02T11:09:32.694Z,69.90
2019-03-02T11:10:30.634Z,70.80
2019-03-02T11:11:32.881Z,71.20
2019-03-02T11:12:30.589Z,70.00
2019-03-02T11:13:30.568Z,72.30
2019-03-02T11:14:31.035Z,73.80
2019-03-02T11:15:30.533Z,77.30
2019-03-02T11:16:30.525Z,77.60
2019-03-02T11:17:30.477Z,70.60
2019-03-02T11:18:30.905Z,75.30
2019-03-02T11:19:30.433Z,80.30
2019-03-02T11:20:30.418Z,80.80
2019-03-02T11:21:30.985Z,72.40
2019-03-02T11:22:38.374Z,71.60
2019-03-02T11:23:30.357Z,82.00
2019-03-02T11:24:30.686Z,76.00
2019-03-02T11:25:30.303Z,70.60
2019-03-02T11:26:30.308Z,71.60
2019-03-02T11:27:30.265Z,75.10
2019-03-02T11:28:30.234Z,71.10
2019-03-02T11:29:30.210Z,73.20
2019-03-02T11:30:30.189Z,71.20
2019-03-02T11:31:30.180Z,67.70
2019-03-02T11:32:30.152Z,73.90
2019-03-02T11:33:30.873Z,68.00
2019-03-02T11:34:30.387Z,65.80
2019-03-02T11:35:30.079Z,61.20
2019-03-02T11:36:30.102Z,67.80
2019-03-02T11:37:30.039Z,63.60
2019-03-02T11:38:30.010Z,67.70
2019-03-02T11:39:29.993Z,71.00
2019-03-02T11:40:32.940Z,68.50
2019-03-02T11:41:29.943Z,74.20
2019-03-02T11:42:29.921Z,73.80
2019-03-02T11:43:29.907Z,66.10
2019-03-02T11:44:29.879Z,67.20
2019-03-02T11:45:29.861Z,65.00
2019-03-02T11:46:29.831Z,67.60
2019-03-02T11:47:33.076Z,64.60
2019-03-02T11:48:29.787Z,62.80
2019-03-02T11:49:30.772Z,70.70
2019-03-02T11:50:29.752Z,65.40
2019-03-02T11:51:29.725Z,65.20
2019-03-02T11:52:29.770Z,61.30
2019-03-02T11:53:29.688Z,69.00
2019-03-02T11:54:29.704Z,66.30
2019-03-02T11:55:29.643Z,60.50
2019-03-02T11:56:29.610Z,64.30
2019-03-02T11:57:29.589Z,67.50
2019-03-02T11:58:29.865Z,70.60
2019-03-02T11:59:29.597Z,62.50
2019-03-02T12:00:37.539Z,62.40
2019-03-02T12:01:29.957Z,67.10
2019-03-02T12:02:29.482Z,63.20
2019-03-02T12:03:29.462Z,66.80
2019-03-02T12:04:29.431Z,65.90
2019-03-02T12:05:29.487Z,65.90
2019-03-02T12:06:29.387Z,60.60
2019-03-02T12:07:29.368Z,59.70
2019-03-02T12:08:29.368Z,62.10
2019-03-02T12:09:29.733Z,62.70
2019-03-02T12:10:30.313Z,58.60
2019-03-02T12:11:31.294Z,58.90
2019-03-02T12:12:29.266Z,61.60
2019-03-02T12:13:31.199Z,55.70
2019-03-02T12:14:29.221Z,64.10
2019-03-02T12:15:29.198Z,63.80
2019-03-02T12:16:29.170Z,58.70
2019-03-02T12:17:29.141Z,56.20
2019-03-02T12:18:29.120Z,61.50
2019-03-02T12:19:29.622Z,60.10
2019-03-02T12:20:29.074Z,58.00
2019-03-02T12:21:29.064Z,62.20
2019-03-02T12:22:30.223Z,60.10
2019-03-02T12:23:29.011Z,61.10
2019-03-02T12:24:28.986Z,56.30
2019-03-02T12:25:31.190Z,57.30
2019-03-02T12:26:28.958Z,54.70
2019-03-02T12:27:28.930Z,57.50
2019-03-02T12:28:28.895Z,57.20
2019-03-02T12:29:28.876Z,56.70
2019-03-02T12:30:28.873Z,54.20
2019-03-02T12:31:31.946Z,54.80
2019-03-02T12:32:28.818Z,59.60
2019-03-02T12:33:28.793Z,55.20
2019-03-02T12:34:31.103Z,58.50
2019-03-02T12:35:28.742Z,55.70
2019-03-02T12:36:28.721Z,54.30
2019-03-02T12:37:32.772Z,55.40
2019-03-02T12:38:28.678Z,55.00
2019-03-02T12:39:28.670Z,54.30
2019-03-02T12:40:28.684Z,56.10
2019-03-02T12:41:28.611Z,54.40
2019-03-02T12:42:30.322Z,54.90
2019-03-02T12:43:28.566Z,51.80
2019-03-02T12:44:28.549Z,54.80
2019-03-02T12:45:30.113Z,51.00
2019-03-02T12:46:28.515Z,54.30
2019-03-02T12:47:29.851Z,54.30
2019-03-02T12:48:29.354Z,52.20
2019-03-02T12:49:28.436Z,53.40
2019-03-02T12:50:28.419Z,53.10
2019-03-02T12:51:28.402Z,56.50
2019-03-02T12:52:28.513Z,52.90
2019-03-02T12:53:28.939Z,52.90
2019-03-02T12:54:28.342Z,54.80
2019-03-02T12:55:28.311Z,57.30